sensor_id;sensor_type;location;lat;lon;timestamp;pressure;altitude;pressure_sealevel;temperature;humidity
51297;BME280;37380;45.186;9.792;2023-08-20T00:00:52;101262.13;;;27.31;100.00
51297;BME280;37380;45.186;9.792;2023-08-20T00:03:20;101255.44;;;27.10;100.00
51297;BME280;37380;45.186;9.792;2023-08-20T00:05:47;101267.13;;;27.08;100.00
51297;BME280;37380;45.186;9.792;2023-08-20T00:08:14;101262.66;;;27.08;100.00
51297;BME280;37380;45.186;9.792;2023-08-20T00:10:41;101260.25;;;26.98;100.00
51297;BME280;37380;45.186;9.792;2023-08-20T00:13:14;101260.41;;;26.92;100.00
51297;BME280;37380;45.186;9.792;2023-08-20T00:16:15;101264.97;;;26.86;100.00
51297;BME280;37380;45.186;9.792;2023-08-20T00:19:10;101268.84;;;26.73;100.00
51297;BME280;37380;45.186;9.792;2023-08-20T00:21:41;101265.13;;;26.80;100.00
51297;BME280;37380;45.186;9.792;2023-08-20T00:24:09;101272.44;;;26.74;100.00
51297;BME280;37380;45.186;9.792;2023-08-20T00:26:36;101276.06;;;26.71;100.00
51297;BME280;37380;45.186;9.792;2023-08-20T00:29:03;101278.91;;;26.65;100.00
51297;BME280;37380;45.186;9.792;2023-08-20T00:31:31;101270.72;;;26.70;100.00
51297;BME280;37380;45.186;9.792;2023-08-20T00:33:58;101273.47;;;26.68;100.00
51297;BME280;37380;45.186;9.792;2023-08-20T00:36:33;101270.94;;;26.60;100.00
51297;BME280;37380;45.186;9.792;2023-08-20T00:39:00;101273.56;;;26.63;100.00
51297;BME280;37380;45.186;9.792;2023-08-20T00:41:27;101261.91;;;26.66;100.00
51297;BME280;37380;45.186;9.792;2023-08-20T00:43:54;101270.28;;;26.51;100.00
51297;BME280;37380;45.186;9.792;2023-08-20T00:46:21;101263.84;;;26.58;100.00
51297;BME280;37380;45.186;9.792;2023-08-20T00:48:48;101266.53;;;26.58;100.00
51297;BME280;37380;45.186;9.792;2023-08-20T00:51:22;101269.19;;;26.59;100.00
51297;BME280;37380;45.186;9.792;2023-08-20T00:54:23;101265.03;;;26.45;100.00
51297;BME280;37380;45.186;9.792;2023-08-20T00:57:18;101262.38;;;26.43;100.00
51297;BME280;37380;45.186;9.792;2023-08-20T00:59:49;101225.03;;;26.35;100.00
51297;BME280;37380;45.186;9.792;2023-08-20T01:02:17;101268.44;;;26.53;100.00
51297;BME280;37380;45.186;9.792;2023-08-20T01:04:44;101273.63;;;26.62;100.00
51297;BME280;37380;45.186;9.792;2023-08-20T01:09:48;101264.84;;;26.54;100.00
51297;BME280;37380;45.186;9.792;2023-08-20T01:12:22;101269.38;;;26.52;100.00
51297;BME280;37380;45.186;9.792;2023-08-20T01:15:24;101265.84;;;26.48;100.00
51297;BME280;37380;45.186;9.792;2023-08-20T01:18:19;101273.88;;;26.48;100.00
51297;BME280;37380;45.186;9.792;2023-08-20T01:20:47;101266.94;;;26.39;100.00
51297;BME280;37380;45.186;9.792;2023-08-20T01:23:22;101274.19;;;26.34;100.00
51297;BME280;37380;45.186;9.792;2023-08-20T01:28:29;101272.22;;;26.42;100.00
51297;BME280;37380;45.186;9.792;2023-08-20T01:30:57;101278.69;;;26.32;100.00
51297;BME280;37380;45.186;9.792;2023-08-20T01:33:24;101282.38;;;26.27;100.00
51297;BME280;37380;45.186;9.792;2023-08-20T01:35:51;101273.38;;;26.31;100.00
51297;BME280;37380;45.186;9.792;2023-08-20T01:38:18;101287.56;;;26.34;100.00
51297;BME280;37380;45.186;9.792;2023-08-20T01:40:45;101285.78;;;26.35;100.00
51297;BME280;37380;45.186;9.792;2023-08-20T01:43:14;101285.03;;;26.28;100.00
51297;BME280;37380;45.186;9.792;2023-08-20T01:45:42;101287.84;;;26.22;100.00
51297;BME280;37380;45.186;9.792;2023-08-20T01:48:09;101278.94;;;26.20;100.00
51297;BME280;37380;45.186;9.792;2023-08-20T01:50:42;101290.66;;;26.16;100.00
51297;BME280;37380;45.186;9.792;2023-08-20T01:53:43;101292.22;;;26.26;100.00
51297;BME280;37380;45.186;9.792;2023-08-20T01:56:38;101279.59;;;26.31;100.00
51297;BME280;37380;45.186;9.792;2023-08-20T01:59:05;101292.22;;;26.26;100.00
51297;BME280;37380;45.186;9.792;2023-08-20T02:01:32;101290.59;;;26.17;100.00
51297;BME280;37380;45.186;9.792;2023-08-20T02:03:59;101290.59;;;26.19;100.00
51297;BME280;37380;45.186;9.792;2023-08-20T02:06:26;101295.94;;;26.19;100.00
51297;BME280;37380;45.186;9.792;2023-08-20T02:08:53;101289.84;;;26.12;100.00
51297;BME280;37380;45.186;9.792;2023-08-20T02:11:22;101287.69;;;25.86;100.00
51297;BME280;37380;45.186;9.792;2023-08-20T02:13:56;101297.66;;;25.75;100.00
51297;BME280;37380;45.186;9.792;2023-08-20T02:16:37;101296.94;;;25.65;100.00
51297;BME280;37380;45.186;9.792;2023-08-20T02:19:31;101287.72;;;25.80;100.00
51297;BME280;37380;45.186;9.792;2023-08-20T02:21:58;101281.06;;;26.04;100.00
51297;BME280;37380;45.186;9.792;2023-08-20T02:24:25;101287.38;;;26.02;100.00
51297;BME280;37380;45.186;9.792;2023-08-20T02:26:52;101283.81;;;26.00;100.00
51297;BME280;37380;45.186;9.792;2023-08-20T02:29:19;101285.81;;;25.90;100.00
51297;BME280;37380;45.186;9.792;2023-08-20T02:31:46;101286.38;;;26.06;100.00
51297;BME280;37380;45.186;9.792;2023-08-20T02:34:15;101289.47;;;26.29;100.00
51297;BME280;37380;45.186;9.792;2023-08-20T02:36:42;101293.16;;;26.24;100.00
51297;BME280;37380;45.186;9.792;2023-08-20T02:39:10;101288.16;;;26.07;100.00
51297;BME280;37380;45.186;9.792;2023-08-20T02:41:37;101292.66;;;26.05;100.00
51297;BME280;37380;45.186;9.792;2023-08-20T02:44:04;101296.47;;;25.91;100.00
51297;BME280;37380;45.186;9.792;2023-08-20T02:46:31;101292.97;;;25.88;100.00
51297;BME280;37380;45.186;9.792;2023-08-20T02:48:58;101287.56;;;25.92;100.00
51297;BME280;37380;45.186;9.792;2023-08-20T02:51:32;101301.69;;;25.99;100.00
51297;BME280;37380;45.186;9.792;2023-08-20T02:54:34;101297.94;;;26.08;100.00
51297;BME280;37380;45.186;9.792;2023-08-20T02:57:29;101301.72;;;25.97;100.00
51297;BME280;37380;45.186;9.792;2023-08-20T02:59:56;101306.84;;;26.10;100.00
51297;BME280;37380;45.186;9.792;2023-08-20T03:02:23;101303.00;;;26.23;100.00
51297;BME280;37380;45.186;9.792;2023-08-20T03:04:49;101304.94;;;26.15;100.00
51297;BME280;37380;45.186;9.792;2023-08-20T03:07:17;101302.56;;;26.01;100.00
51297;BME280;37380;45.186;9.792;2023-08-20T03:09:43;101305.19;;;26.03;100.00
51297;BME280;37380;45.186;9.792;2023-08-20T03:12:16;101302.44;;;26.07;100.00
51297;BME280;37380;45.186;9.792;2023-08-20T03:15:18;101305.22;;;26.01;100.00
51297;BME280;37380;45.186;9.792;2023-08-20T03:18:18;101303.19;;;26.14;100.00
51297;BME280;37380;45.186;9.792;2023-08-20T03:21:19;101306.13;;;26.00;100.00
51297;BME280;37380;45.186;9.792;2023-08-20T03:24:14;101308.09;;;25.92;100.00
51297;BME280;37380;45.186;9.792;2023-08-20T03:26:41;101307.06;;;25.97;100.00
51297;BME280;37380;45.186;9.792;2023-08-20T03:29:08;101307.41;;;25.79;100.00
51297;BME280;37380;45.186;9.792;2023-08-20T03:31:36;101308.69;;;26.06;100.00
51297;BME280;37380;45.186;9.792;2023-08-20T03:34:03;101317.78;;;25.97;100.00
51297;BME280;37380;45.186;9.792;2023-08-20T03:36:30;101311.53;;;25.99;100.00
51297;BME280;37380;45.186;9.792;2023-08-20T03:38:58;101308.84;;;25.99;100.00
51297;BME280;37380;45.186;9.792;2023-08-20T03:41:26;101306.97;;;26.04;100.00
51297;BME280;37380;45.186;9.792;2023-08-20T03:43:53;101314.50;;;25.82;100.00
51297;BME280;37380;45.186;9.792;2023-08-20T03:46:20;101307.38;;;25.81;100.00
51297;BME280;37380;45.186;9.792;2023-08-20T03:48:47;101307.13;;;25.94;100.00
51297;BME280;37380;45.186;9.792;2023-08-20T03:51:22;101310.13;;;25.76;100.00
51297;BME280;37380;45.186;9.792;2023-08-20T03:54:23;101317.03;;;25.91;100.00
51297;BME280;37380;45.186;9.792;2023-08-20T03:57:17;101316.94;;;25.95;100.00
51297;BME280;37380;45.186;9.792;2023-08-20T03:59:44;101309.94;;;25.88;100.00
51297;BME280;37380;45.186;9.792;2023-08-20T04:02:13;101314.31;;;25.92;100.00
51297;BME280;37380;45.186;9.792;2023-08-20T04:04:40;101311.00;;;25.78;100.00
51297;BME280;37380;45.186;9.792;2023-08-20T04:07:07;101319.97;;;25.75;100.00
51297;BME280;37380;45.186;9.792;2023-08-20T04:09:34;101316.53;;;25.69;100.00
51297;BME280;37380;45.186;9.792;2023-08-20T04:12:03;101323.91;;;25.53;100.00
51297;BME280;37380;45.186;9.792;2023-08-20T04:15:04;101312.50;;;25.43;100.00
51297;BME280;37380;45.186;9.792;2023-08-20T04:17:58;101314.13;;;25.52;100.00
51297;BME280;37380;45.186;9.792;2023-08-20T04:20:25;101317.72;;;25.51;100.00
51297;BME280;37380;45.186;9.792;2023-08-20T04:22:52;101335.38;;;25.60;100.00
51297;BME280;37380;45.186;9.792;2023-08-20T04:25:19;101324.75;;;25.57;100.00
51297;BME280;37380;45.186;9.792;2023-08-20T04:27:47;101319.22;;;25.67;100.00
51297;BME280;37380;45.186;9.792;2023-08-20T04:30:13;101330.03;;;25.63;100.00
51297;BME280;37380;45.186;9.792;2023-08-20T04:32:41;101337.53;;;25.39;100.00
51297;BME280;37380;45.186;9.792;2023-08-20T04:35:08;101338.66;;;25.26;100.00
51297;BME280;37380;45.186;9.792;2023-08-20T04:37:35;101340.63;;;25.12;100.00
51297;BME280;37380;45.186;9.792;2023-08-20T04:40:03;101334.75;;;24.87;100.00
51297;BME280;37380;45.186;9.792;2023-08-20T04:42:34;101333.97;;;24.80;100.00
51297;BME280;37380;45.186;9.792;2023-08-20T04:45:01;101338.53;;;24.72;100.00
51297;BME280;37380;45.186;9.792;2023-08-20T04:47:29;101335.09;;;24.62;100.00
51297;BME280;37380;45.186;9.792;2023-08-20T04:49:56;101342.00;;;24.78;100.00
51297;BME280;37380;45.186;9.792;2023-08-20T04:52:30;101335.50;;;24.96;100.00
51297;BME280;37380;45.186;9.792;2023-08-20T04:55:31;101341.59;;;25.04;100.00
51297;BME280;37380;45.186;9.792;2023-08-20T04:57:58;101341.13;;;25.40;100.00
51297;BME280;37380;45.186;9.792;2023-08-20T05:00:25;101344.66;;;25.91;100.00
51297;BME280;37380;45.186;9.792;2023-08-20T05:03:00;101348.25;;;26.37;100.00
51297;BME280;37380;45.186;9.792;2023-08-20T05:05:28;101347.97;;;26.93;100.00
51297;BME280;37380;45.186;9.792;2023-08-20T05:07:56;101355.72;;;27.05;100.00
51297;BME280;37380;45.186;9.792;2023-08-20T05:10:23;101355.78;;;26.61;100.00
51297;BME280;37380;45.186;9.792;2023-08-20T05:12:58;101363.53;;;26.77;100.00
51297;BME280;37380;45.186;9.792;2023-08-20T05:15:59;101356.94;;;27.30;100.00
51297;BME280;37380;45.186;9.792;2023-08-20T05:18:53;101367.88;;;27.23;100.00
51297;BME280;37380;45.186;9.792;2023-08-20T05:21:20;101369.56;;;28.30;100.00
51297;BME280;37380;45.186;9.792;2023-08-20T05:23:50;101369.72;;;28.25;100.00
51297;BME280;37380;45.186;9.792;2023-08-20T05:26:17;101376.41;;;28.73;100.00
51297;BME280;37380;45.186;9.792;2023-08-20T05:28:44;101380.19;;;29.25;100.00
51297;BME280;37380;45.186;9.792;2023-08-20T05:31:11;101378.22;;;29.85;98.61
51297;BME280;37380;45.186;9.792;2023-08-20T05:33:40;101372.41;;;29.97;97.07
51297;BME280;37380;45.186;9.792;2023-08-20T05:36:07;101377.53;;;29.51;100.00
51297;BME280;37380;45.186;9.792;2023-08-20T05:38:35;101378.81;;;29.11;100.00
51297;BME280;37380;45.186;9.792;2023-08-20T05:41:02;101379.09;;;28.43;100.00
51297;BME280;37380;45.186;9.792;2023-08-20T05:43:29;101384.94;;;28.57;100.00
51297;BME280;37380;45.186;9.792;2023-08-20T05:45:56;101382.19;;;28.28;100.00
51297;BME280;37380;45.186;9.792;2023-08-20T05:48:25;101383.94;;;27.96;100.00
51297;BME280;37380;45.186;9.792;2023-08-20T05:50:59;101377.56;;;28.00;100.00
51297;BME280;37380;45.186;9.792;2023-08-20T05:54:00;101392.53;;;27.37;100.00
51297;BME280;37380;45.186;9.792;2023-08-20T05:57:04;101383.00;;;27.25;100.00
51297;BME280;37380;45.186;9.792;2023-08-20T06:00:05;101396.38;;;26.86;100.00
51297;BME280;37380;45.186;9.792;2023-08-20T06:03:14;101392.50;;;27.00;100.00
51297;BME280;37380;45.186;9.792;2023-08-20T06:06:15;101396.09;;;26.99;100.00
51297;BME280;37380;45.186;9.792;2023-08-20T06:09:02;101401.25;;;27.08;100.00
51297;BME280;37380;45.186;9.792;2023-08-20T06:11:35;101412.63;;;27.21;100.00
51297;BME280;37380;45.186;9.792;2023-08-20T06:14:02;101413.09;;;27.75;100.00
51297;BME280;37380;45.186;9.792;2023-08-20T06:16:29;101406.63;;;29.12;100.00
51297;BME280;37380;45.186;9.792;2023-08-20T06:18:57;101409.13;;;31.44;96.04
51297;BME280;37380;45.186;9.792;2023-08-20T06:21:28;101410.41;;;33.18;83.82
51297;BME280;37380;45.186;9.792;2023-08-20T06:23:55;101414.81;;;34.43;75.72
51297;BME280;37380;45.186;9.792;2023-08-20T06:26:22;101418.22;;;35.13;70.16
51297;BME280;37380;45.186;9.792;2023-08-20T06:28:49;101430.47;;;35.98;65.36
51297;BME280;37380;45.186;9.792;2023-08-20T06:31:16;101426.72;;;34.58;73.10
51297;BME280;37380;45.186;9.792;2023-08-20T06:33:43;101421.91;;;35.12;71.08
51297;BME280;37380;45.186;9.792;2023-08-20T06:36:10;101425.50;;;35.91;63.77
51297;BME280;37380;45.186;9.792;2023-08-20T06:38:37;101428.34;;;36.03;62.56
51297;BME280;37380;45.186;9.792;2023-08-20T06:41:04;101438.44;;;35.71;64.79
51297;BME280;37380;45.186;9.792;2023-08-20T06:43:31;101430.44;;;36.59;61.04
51297;BME280;37380;45.186;9.792;2023-08-20T06:45:58;101430.75;;;35.00;70.69
51297;BME280;37380;45.186;9.792;2023-08-20T06:48:25;101426.72;;;35.71;65.89
51297;BME280;37380;45.186;9.792;2023-08-20T06:51:07;101417.66;;;36.16;61.72
51297;BME280;37380;45.186;9.792;2023-08-20T06:54:09;101432.75;;;35.76;61.98
51297;BME280;37380;45.186;9.792;2023-08-20T06:57:10;101437.56;;;36.01;61.94
51297;BME280;37380;45.186;9.792;2023-08-20T07:00:11;101439.84;;;35.78;60.77
51297;BME280;37380;45.186;9.792;2023-08-20T07:03:13;101434.97;;;35.06;63.24
51297;BME280;37380;45.186;9.792;2023-08-20T07:06:14;101436.69;;;34.40;68.12
51297;BME280;37380;45.186;9.792;2023-08-20T07:09:15;101436.53;;;35.73;63.42
51297;BME280;37380;45.186;9.792;2023-08-20T07:12:09;101440.56;;;35.66;60.70
51297;BME280;37380;45.186;9.792;2023-08-20T07:14:36;101433.22;;;36.43;63.42
51297;BME280;37380;45.186;9.792;2023-08-20T07:17:02;101433.63;;;36.51;58.04
51297;BME280;37380;45.186;9.792;2023-08-20T07:19:29;101441.44;;;35.51;60.62
51297;BME280;37380;45.186;9.792;2023-08-20T07:21:56;101443.63;;;35.44;59.68
51297;BME280;37380;45.186;9.792;2023-08-20T07:24:23;101443.13;;;34.73;63.41
51297;BME280;37380;45.186;9.792;2023-08-20T07:26:52;101444.59;;;33.93;66.71
51297;BME280;37380;45.186;9.792;2023-08-20T07:29:19;101446.22;;;34.32;65.57
51297;BME280;37380;45.186;9.792;2023-08-20T07:31:46;101445.00;;;35.04;64.88
51297;BME280;37380;45.186;9.792;2023-08-20T07:34:13;101448.31;;;35.26;64.30
51297;BME280;37380;45.186;9.792;2023-08-20T07:36:40;101451.31;;;34.88;67.87
51297;BME280;37380;45.186;9.792;2023-08-20T07:39:07;101449.56;;;36.13;63.96
51297;BME280;37380;45.186;9.792;2023-08-20T07:41:35;101448.41;;;35.87;64.59
51297;BME280;37380;45.186;9.792;2023-08-20T07:44:02;101448.63;;;36.72;56.15
51297;BME280;37380;45.186;9.792;2023-08-20T07:46:35;101440.84;;;36.81;54.52
51297;BME280;37380;45.186;9.792;2023-08-20T07:49:29;101451.63;;;36.09;55.85
51297;BME280;37380;45.186;9.792;2023-08-20T07:52:05;101449.25;;;36.47;54.74
51297;BME280;37380;45.186;9.792;2023-08-20T07:55:06;101446.56;;;36.62;55.20
51297;BME280;37380;45.186;9.792;2023-08-20T07:58:07;101445.75;;;36.45;58.72
51297;BME280;37380;45.186;9.792;2023-08-20T08:01:08;101450.94;;;37.07;54.82
51297;BME280;37380;45.186;9.792;2023-08-20T08:04:02;101448.28;;;35.42;58.57
51297;BME280;37380;45.186;9.792;2023-08-20T08:06:56;101451.91;;;36.04;56.65
51297;BME280;37380;45.186;9.792;2023-08-20T08:09:57;101445.50;;;35.44;61.03
51297;BME280;37380;45.186;9.792;2023-08-20T08:12:51;101447.22;;;36.07;58.71
51297;BME280;37380;45.186;9.792;2023-08-20T08:15:18;101440.38;;;35.69;58.53
51297;BME280;37380;45.186;9.792;2023-08-20T08:17:45;101440.41;;;35.22;67.13
51297;BME280;37380;45.186;9.792;2023-08-20T08:20:12;101445.81;;;36.15;58.74
51297;BME280;37380;45.186;9.792;2023-08-20T08:22:39;101443.91;;;36.01;57.51
51297;BME280;37380;45.186;9.792;2023-08-20T08:25:06;101433.66;;;35.29;61.67
51297;BME280;37380;45.186;9.792;2023-08-20T08:27:33;101438.38;;;34.76;65.19
51297;BME280;37380;45.186;9.792;2023-08-20T08:30:16;101445.31;;;35.31;67.51
51297;BME280;37380;45.186;9.792;2023-08-20T08:32:43;101438.53;;;35.54;60.35
51297;BME280;37380;45.186;9.792;2023-08-20T08:35:10;101439.53;;;35.21;61.82
51297;BME280;37380;45.186;9.792;2023-08-20T08:37:37;101433.56;;;35.62;58.93
51297;BME280;37380;45.186;9.792;2023-08-20T08:40:05;101435.31;;;35.15;63.17
51297;BME280;37380;45.186;9.792;2023-08-20T08:42:32;101437.66;;;35.53;59.71
51297;BME280;37380;45.186;9.792;2023-08-20T08:45:06;101436.88;;;36.13;57.49
51297;BME280;37380;45.186;9.792;2023-08-20T08:48:07;101431.84;;;36.50;56.05
51297;BME280;37380;45.186;9.792;2023-08-20T08:51:08;101439.59;;;35.97;59.05
51297;BME280;37380;45.186;9.792;2023-08-20T08:54:09;101437.44;;;35.26;57.43
51297;BME280;37380;45.186;9.792;2023-08-20T08:57:10;101433.31;;;35.81;57.92
51297;BME280;37380;45.186;9.792;2023-08-20T09:00:11;101423.44;;;36.55;55.88
51297;BME280;37380;45.186;9.792;2023-08-20T09:03:12;101423.28;;;36.42;58.33
51297;BME280;37380;45.186;9.792;2023-08-20T09:06:09;101429.56;;;33.68;63.81
51297;BME280;37380;45.186;9.792;2023-08-20T09:08:39;101426.50;;;34.28;69.25
51297;BME280;37380;45.186;9.792;2023-08-20T09:11:05;101426.38;;;35.13;64.13
51297;BME280;37380;45.186;9.792;2023-08-20T09:13:36;101415.88;;;36.15;57.17
51297;BME280;37380;45.186;9.792;2023-08-20T09:16:07;101419.59;;;36.29;55.73
51297;BME280;37380;45.186;9.792;2023-08-20T09:18:38;101425.91;;;35.69;56.34
51297;BME280;37380;45.186;9.792;2023-08-20T09:21:10;101416.53;;;35.43;55.19
51297;BME280;37380;45.186;9.792;2023-08-20T09:23:37;101412.34;;;35.53;53.96
51297;BME280;37380;45.186;9.792;2023-08-20T09:26:05;101415.00;;;36.15;52.10
51297;BME280;37380;45.186;9.792;2023-08-20T09:28:42;101425.66;;;35.73;54.22
51297;BME280;37380;45.186;9.792;2023-08-20T09:31:10;101406.97;;;36.13;57.88
51297;BME280;37380;45.186;9.792;2023-08-20T09:33:48;101402.25;;;36.60;53.65
51297;BME280;37380;45.186;9.792;2023-08-20T09:36:16;101403.97;;;37.04;50.43
51297;BME280;37380;45.186;9.792;2023-08-20T09:38:42;101412.72;;;37.50;48.01
51297;BME280;37380;45.186;9.792;2023-08-20T09:41:09;101404.41;;;37.52;49.48
51297;BME280;37380;45.186;9.792;2023-08-20T09:43:45;101409.13;;;37.35;47.67
51297;BME280;37380;45.186;9.792;2023-08-20T09:46:47;101416.56;;;37.19;45.43
51297;BME280;37380;45.186;9.792;2023-08-20T09:49:42;101408.94;;;36.68;48.29
51297;BME280;37380;45.186;9.792;2023-08-20T09:52:17;101406.31;;;36.67;48.44
51297;BME280;37380;45.186;9.792;2023-08-20T09:55:20;101401.09;;;37.20;46.16
51297;BME280;37380;45.186;9.792;2023-08-20T09:57:48;101405.03;;;37.01;50.87
51297;BME280;37380;45.186;9.792;2023-08-20T10:00:22;101400.22;;;37.46;47.04
51297;BME280;37380;45.186;9.792;2023-08-20T10:03:23;101399.38;;;37.04;48.36
51297;BME280;37380;45.186;9.792;2023-08-20T10:06:17;101404.72;;;37.06;46.57
51297;BME280;37380;45.186;9.792;2023-08-20T10:08:45;101404.22;;;37.13;46.45
51297;BME280;37380;45.186;9.792;2023-08-20T10:11:13;101400.56;;;36.86;45.65
51297;BME280;37380;45.186;9.792;2023-08-20T10:13:40;101395.66;;;36.05;49.68
51297;BME280;37380;45.186;9.792;2023-08-20T10:16:07;101398.66;;;35.70;52.26
51297;BME280;37380;45.186;9.792;2023-08-20T10:18:34;101397.88;;;36.71;47.80
51297;BME280;37380;45.186;9.792;2023-08-20T10:21:01;101396.75;;;37.44;45.57
51297;BME280;37380;45.186;9.792;2023-08-20T10:23:30;101395.16;;;37.54;44.43
51297;BME280;37380;45.186;9.792;2023-08-20T10:26:06;101389.41;;;37.72;44.17
51297;BME280;37380;45.186;9.792;2023-08-20T10:28:33;101391.47;;;38.34;38.93
51297;BME280;37380;45.186;9.792;2023-08-20T10:31:08;101382.97;;;38.25;39.11
51297;BME280;37380;45.186;9.792;2023-08-20T10:33:36;101380.31;;;37.98;42.63
51297;BME280;37380;45.186;9.792;2023-08-20T10:36:07;101377.84;;;38.46;40.83
51297;BME280;37380;45.186;9.792;2023-08-20T10:38:37;101383.47;;;38.69;40.04
51297;BME280;37380;45.186;9.792;2023-08-20T10:41:06;101381.41;;;38.72;39.06
51297;BME280;37380;45.186;9.792;2023-08-20T10:46:22;101380.19;;;38.77;38.88
51297;BME280;37380;45.186;9.792;2023-08-20T10:49:21;101369.88;;;37.65;39.60
51297;BME280;37380;45.186;9.792;2023-08-20T10:52:22;101371.16;;;38.25;36.06
51297;BME280;37380;45.186;9.792;2023-08-20T10:55:23;101370.41;;;38.36;39.00
51297;BME280;37380;45.186;9.792;2023-08-20T10:58:17;101363.28;;;38.59;38.87
51297;BME280;37380;45.186;9.792;2023-08-20T11:04:22;101362.50;;;39.19;37.69
51297;BME280;37380;45.186;9.792;2023-08-20T11:07:19;101355.44;;;38.54;39.19
51297;BME280;37380;45.186;9.792;2023-08-20T11:09:47;101358.78;;;38.70;39.12
51297;BME280;37380;45.186;9.792;2023-08-20T11:12:15;101364.53;;;38.91;38.67
51297;BME280;37380;45.186;9.792;2023-08-20T11:14:43;101363.63;;;39.04;38.33
51297;BME280;37380;45.186;9.792;2023-08-20T11:17:10;101361.41;;;38.72;41.45
51297;BME280;37380;45.186;9.792;2023-08-20T11:19:36;101358.28;;;38.53;37.84
51297;BME280;37380;45.186;9.792;2023-08-20T11:22:04;101359.63;;;38.84;37.55
51297;BME280;37380;45.186;9.792;2023-08-20T11:24:31;101361.63;;;38.69;37.98
51297;BME280;37380;45.186;9.792;2023-08-20T11:26:59;101351.16;;;38.63;35.98
51297;BME280;37380;45.186;9.792;2023-08-20T11:29:27;101349.31;;;37.20;37.73
51297;BME280;37380;45.186;9.792;2023-08-20T11:31:54;101347.94;;;37.67;40.38
51297;BME280;37380;45.186;9.792;2023-08-20T11:34:21;101339.09;;;38.03;39.61
51297;BME280;37380;45.186;9.792;2023-08-20T11:36:49;101341.69;;;38.56;38.19
51297;BME280;37380;45.186;9.792;2023-08-20T11:39:16;101337.66;;;37.97;36.69
51297;BME280;37380;45.186;9.792;2023-08-20T11:41:43;101338.75;;;37.95;39.73
51297;BME280;37380;45.186;9.792;2023-08-20T11:44:20;101336.75;;;38.48;36.93
51297;BME280;37380;45.186;9.792;2023-08-20T11:47:21;101325.78;;;37.58;37.89
51297;BME280;37380;45.186;9.792;2023-08-20T11:50:22;101327.25;;;37.90;38.03
51297;BME280;37380;45.186;9.792;2023-08-20T11:53:23;101330.13;;;38.52;37.78
51297;BME280;37380;45.186;9.792;2023-08-20T11:56:17;101324.97;;;37.44;39.30
51297;BME280;37380;45.186;9.792;2023-08-20T11:58:49;101322.75;;;37.50;41.72
51297;BME280;37380;45.186;9.792;2023-08-20T12:01:23;101312.97;;;37.86;40.26
51297;BME280;37380;45.186;9.792;2023-08-20T12:04:25;101315.69;;;37.86;39.34
51297;BME280;37380;45.186;9.792;2023-08-20T12:07:19;101319.06;;;37.37;39.32
51297;BME280;37380;45.186;9.792;2023-08-20T12:09:46;101317.97;;;37.27;40.19
51297;BME280;37380;45.186;9.792;2023-08-20T12:12:15;101312.25;;;37.17;40.95
51297;BME280;37380;45.186;9.792;2023-08-20T12:14:45;101309.91;;;37.38;38.77
51297;BME280;37380;45.186;9.792;2023-08-20T12:17:12;101300.44;;;37.44;38.58
51297;BME280;37380;45.186;9.792;2023-08-20T12:19:43;101310.34;;;37.05;40.92
51297;BME280;37380;45.186;9.792;2023-08-20T12:22:10;101305.88;;;37.31;39.38
51297;BME280;37380;45.186;9.792;2023-08-20T12:24:37;101302.94;;;37.34;36.27
51297;BME280;37380;45.186;9.792;2023-08-20T12:27:07;101301.47;;;37.55;35.24
51297;BME280;37380;45.186;9.792;2023-08-20T12:29:34;101294.16;;;36.04;37.67
51297;BME280;37380;45.186;9.792;2023-08-20T12:32:01;101294.56;;;35.22;39.13
51297;BME280;37380;45.186;9.792;2023-08-20T12:34:30;101291.50;;;35.28;40.02
51297;BME280;37380;45.186;9.792;2023-08-20T12:36:58;101281.53;;;35.59;39.49
51297;BME280;37380;45.186;9.792;2023-08-20T12:39:25;101288.13;;;36.28;44.33
51297;BME280;37380;45.186;9.792;2023-08-20T12:41:51;101289.25;;;36.67;40.09
51297;BME280;37380;45.186;9.792;2023-08-20T12:44:18;101286.22;;;36.99;38.01
51297;BME280;37380;45.186;9.792;2023-08-20T12:46:52;101281.19;;;36.92;36.61
51297;BME280;37380;45.186;9.792;2023-08-20T12:49:53;101285.13;;;37.15;35.42
51297;BME280;37380;45.186;9.792;2023-08-20T12:52:54;101279.81;;;37.27;36.00
51297;BME280;37380;45.186;9.792;2023-08-20T12:55:55;101276.72;;;37.19;35.16
51297;BME280;37380;45.186;9.792;2023-08-20T12:58:56;101275.75;;;36.65;35.42
51297;BME280;37380;45.186;9.792;2023-08-20T13:01:57;101276.19;;;36.99;34.48
51297;BME280;37380;45.186;9.792;2023-08-20T13:04:58;101267.88;;;36.88;37.11
51297;BME280;37380;45.186;9.792;2023-08-20T13:07:52;101263.78;;;36.95;34.98
51297;BME280;37380;45.186;9.792;2023-08-20T13:10:26;101273.56;;;36.70;34.16
51297;BME280;37380;45.186;9.792;2023-08-20T13:13:27;101265.84;;;36.36;34.63
51297;BME280;37380;45.186;9.792;2023-08-20T13:16:28;101254.63;;;35.69;35.29
51297;BME280;37380;45.186;9.792;2023-08-20T13:19:29;101263.13;;;35.93;35.16
51297;BME280;37380;45.186;9.792;2023-08-20T13:22:23;101252.44;;;36.18;37.50
51297;BME280;37380;45.186;9.792;2023-08-20T13:24:50;101252.22;;;36.36;38.44
51297;BME280;37380;45.186;9.792;2023-08-20T13:27:17;101244.38;;;36.31;38.43
51297;BME280;37380;45.186;9.792;2023-08-20T13:29:44;101243.66;;;36.56;38.29
51297;BME280;37380;45.186;9.792;2023-08-20T13:32:11;101249.38;;;36.52;36.40
51297;BME280;37380;45.186;9.792;2023-08-20T13:34:38;101242.19;;;36.50;35.83
51297;BME280;37380;45.186;9.792;2023-08-20T13:37:06;101233.78;;;36.26;36.04
51297;BME280;37380;45.186;9.792;2023-08-20T13:39:34;101238.84;;;36.04;36.46
51297;BME280;37380;45.186;9.792;2023-08-20T13:42:01;101237.66;;;35.94;36.72